Time;durP1;ratioP1;P1;durP2;ratioP2;P2;SDS_P1;SDS_P2;PMS_P1;PMS_P2;Temp;Humidity;BMP_temperature;BMP_pressure;BME280_temperature;BME280_humidity;BME280_pressure;Samples;Min_cycle;Max_cycle;Signal;HPM_P1;HPM_P2
2022/06/12 00:02:07;;;;;;;6.30;2.60;;;17.10;99.90;;;;;;4940062;28;20196;-75
2022/06/12 00:04:33;;;;;;;2.77;2.30;;;17.20;99.90;;;;;;4972157;28;20172;-74
2022/06/12 00:06:59;;;;;;;2.50;2.30;;;17.20;99.90;;;;;;4988305;28;20181;-74
2022/06/12 00:09:24;;;;;;;3.50;2.47;;;17.10;99.90;;;;;;4971555;28;20239;-74
2022/06/12 00:11:50;;;;;;;2.30;2.10;;;17.10;99.90;;;;;;4955679;28;20240;-74
2022/06/12 00:14:16;;;;;;;3.23;2.40;;;17.00;99.90;;;;;;4956057;28;20191;-75
2022/06/12 00:16:44;;;;;;;2.90;2.70;;;16.90;99.90;;;;;;4955718;28;20184;-75
2022/06/12 00:19:09;;;;;;;3.40;2.47;;;16.80;99.90;;;;;;4988204;28;20180;-74
2022/06/12 00:21:36;;;;;;;2.77;2.50;;;16.80;99.90;;;;;;4956008;28;20303;-74
2022/06/12 00:24:10;;;;;;;3.97;2.30;;;16.80;99.90;;;;;;4956110;28;20192;-74
2022/06/12 00:26:44;;;;;;;2.73;2.40;;;16.70;99.90;;;;;;4988348;28;20184;-74
2022/06/12 00:29:16;;;;;;;3.00;2.40;;;16.70;99.90;;;;;;4988131;28;20184;-74
2022/06/12 00:31:50;;;;;;;3.67;2.50;;;16.70;99.90;;;;;;4972880;28;20200;-75
2022/06/12 00:34:19;;;;;;;3.43;2.47;;;16.80;99.90;;;;;;4988305;28;20191;-75
2022/06/12 00:36:45;;;;;;;3.57;2.73;;;16.80;99.90;;;;;;4972198;28;20231;-74
2022/06/12 00:39:11;;;;;;;3.30;2.97;;;16.80;99.90;;;;;;4988100;28;20177;-74
2022/06/12 00:41:38;;;;;;;4.50;3.20;;;16.70;99.90;;;;;;4971917;28;20200;-74
2022/06/12 00:44:04;;;;;;;2.73;2.47;;;16.30;99.90;;;;;;4972939;28;20177;-75
2022/06/12 00:46:35;;;;;;;3.57;2.77;;;16.20;99.90;;;;;;4971762;28;20181;-75
2022/06/12 00:49:11;;;;;;;3.47;2.50;;;16.20;99.90;;;;;;4973046;28;20172;-74
2022/06/12 00:51:38;;;;;;;3.00;2.43;;;16.00;99.90;;;;;;4971681;28;20207;-74
2022/06/12 00:54:06;;;;;;;4.10;2.90;;;15.60;99.90;;;;;;4971655;28;20208;-74
2022/06/12 00:56:36;;;;;;;3.17;2.70;;;15.50;99.90;;;;;;4972976;28;20165;-74
2022/06/12 00:59:08;;;;;;;3.97;2.53;;;15.50;99.90;;;;;;4972978;28;20172;-74
2022/06/12 01:01:38;;;;;;;2.73;2.50;;;15.40;99.90;;;;;;4971721;28;20188;-74
2022/06/12 01:06:52;;;;;;;3.30;2.70;;;15.50;99.90;;;;;;4972381;28;20199;-74
2022/06/12 01:09:22;;;;;;;2.60;2.40;;;15.50;99.90;;;;;;4987686;28;20639;-74
2022/06/12 01:11:51;;;;;;;2.90;2.20;;;15.50;99.90;;;;;;4971561;28;20244;-74
2022/06/12 01:14:22;;;;;;;3.97;2.40;;;15.50;99.90;;;;;;4987726;28;20204;-75
2022/06/12 01:16:49;;;;;;;4.60;2.53;;;15.50;99.90;;;;;;4987530;28;20738;-74
2022/06/12 01:19:27;;;;;;;3.80;2.40;;;15.40;99.90;;;;;;4987758;28;20181;-74
2022/06/12 01:22:26;;;;;;;3.73;2.67;;;15.40;99.90;;;;;;5053945;23;20231;-75
2022/06/12 01:25:25;;;;;;;2.60;2.40;;;15.40;99.90;;;;;;5014205;28;20258;-75
2022/06/12 01:27:56;;;;;;;2.97;2.40;;;15.30;99.90;;;;;;5014055;28;20195;-75
2022/06/12 01:30:40;;;;;;;3.30;2.53;;;15.20;99.90;;;;;;5015040;28;20171;-75
2022/06/12 01:33:06;;;;;;;3.90;2.60;;;15.30;99.90;;;;;;5030294;28;20222;-75
2022/06/12 01:35:52;;;;;;;3.57;2.90;;;15.30;99.90;;;;;;5013783;28;20214;-75
2022/06/12 01:38:54;;;;;;;3.50;2.70;;;15.50;99.90;;;;;;5013439;28;20175;-75
2022/06/12 01:41:23;;;;;;;3.20;2.90;;;15.60;99.90;;;;;;5013662;28;20190;-75
2022/06/12 01:44:13;;;;;;;3.53;3.23;;;15.70;99.90;;;;;;5014871;28;20179;-75
2022/06/12 01:46:57;;;;;;;4.10;3.03;;;15.70;99.90;;;;;;5013562;28;20175;-75
2022/06/12 01:49:31;;;;;;;3.47;3.17;;;15.70;99.90;;;;;;5015089;28;20621;-75
2022/06/12 01:52:01;;;;;;;4.50;3.60;;;15.50;99.90;;;;;;5029881;28;20661;-75
2022/06/12 01:54:52;;;;;;;3.83;3.40;;;15.40;99.90;;;;;;5030037;28;20171;-75
2022/06/12 01:57:28;;;;;;;4.77;3.60;;;15.40;99.90;;;;;;5014674;28;20167;-75
2022/06/12 02:00:08;;;;;;;4.90;3.43;;;15.40;99.90;;;;;;5029844;28;20262;-75
2022/06/12 02:02:55;;;;;;;4.50;3.50;;;15.30;99.90;;;;;;5012950;28;20643;-75
2022/06/12 02:05:27;;;;;;;5.10;3.60;;;15.20;99.90;;;;;;5014966;28;20193;-75
2022/06/12 02:08:00;;;;;;;4.70;3.10;;;15.30;99.90;;;;;;5013298;28;20210;-75
2022/06/12 02:10:29;;;;;;;3.87;3.50;;;15.30;99.90;;;;;;5029752;28;20171;-75
2022/06/12 02:13:11;;;;;;;3.30;2.97;;;15.50;99.90;;;;;;5012879;28;20306;-75
2022/06/12 02:15:48;;;;;;;5.03;3.10;;;15.50;99.90;;;;;;5029556;28;20227;-75
2022/06/12 02:18:14;;;;;;;3.33;3.00;;;15.50;99.90;;;;;;5012920;28;20174;-75
2022/06/12 02:20:43;;;;;;;6.00;3.40;;;15.40;99.90;;;;;;5012968;28;20198;-75
2022/06/12 02:23:14;;;;;;;3.00;2.70;;;15.40;99.90;;;;;;5012700;28;20266;-75
2022/06/12 02:25:44;;;;;;;3.40;3.10;;;15.40;99.90;;;;;;5012888;28;20186;-75
2022/06/12 02:28:15;;;;;;;3.57;2.70;;;15.40;99.90;;;;;;5029369;28;20171;-75
2022/06/12 02:30:44;;;;;;;2.80;2.60;;;15.30;99.90;;;;;;5029139;28;20199;-75
2022/06/12 02:33:22;;;;;;;4.10;2.60;;;15.20;99.90;;;;;;5012882;28;20209;-75
2022/06/12 02:36:03;;;;;;;3.07;2.77;;;15.00;99.90;;;;;;5013368;28;20182;-75
2022/06/12 02:38:36;;;;;;;3.23;2.93;;;15.10;99.90;;;;;;5012523;28;20171;-75
2022/06/12 02:41:06;;;;;;;3.00;2.70;;;15.20;99.90;;;;;;5012492;28;20202;-75
2022/06/12 02:43:37;;;;;;;4.50;3.10;;;15.20;99.90;;;;;;5029143;28;20242;-75
2022/06/12 02:46:30;;;;;;;3.97;3.10;;;15.10;99.90;;;;;;5013185;28;20198;-75
2022/06/12 02:48:56;;;;;;;5.30;3.30;;;15.20;99.90;;;;;;5012509;28;20179;-75
2022/06/12 02:51:42;;;;;;;2.70;2.50;;;15.30;99.90;;;;;;5012301;28;20210;-76
2022/06/12 02:54:19;;;;;;;3.47;3.07;;;15.30;99.90;;;;;;5012481;28;20228;-75
2022/06/12 02:56:56;;;;;;;3.60;2.70;;;15.20;99.90;;;;;;5028771;28;20329;-75
2022/06/12 02:59:43;;;;;;;3.37;3.00;;;14.90;99.90;;;;;;5012348;28;20174;-75
2022/06/12 03:02:36;;;;;;;3.40;2.70;;;14.90;99.90;;;;;;5011979;28;20748;-75
2022/06/12 03:05:26;;;;;;;3.10;2.90;;;14.70;99.90;;;;;;5013522;28;20532;-75
2022/06/12 03:08:03;;;;;;;3.30;2.50;;;14.50;99.90;;;;;;5028546;28;20170;-75
2022/06/12 03:10:36;;;;;;;2.77;2.57;;;14.50;99.90;;;;;;5012097;28;20198;-75
2022/06/12 03:13:05;;;;;;;2.73;2.50;;;14.40;99.90;;;;;;5012368;28;20207;-75
2022/06/12 03:15:42;;;;;;;3.10;2.60;;;14.40;99.90;;;;;;4996051;28;20171;-75
2022/06/12 03:18:12;;;;;;;3.00;2.60;;;14.30;99.90;;;;;;5012880;28;20162;-75
2022/06/12 03:20:52;;;;;;;3.20;2.70;;;14.20;99.90;;;;;;5028203;28;20207;-75
2022/06/12 03:23:40;;;;;;;3.20;2.90;;;14.20;99.90;;;;;;5011681;28;20175;-75
2022/06/12 03:26:09;;;;;;;2.93;2.60;;;14.50;99.90;;;;;;5028326;28;20645;-75
2022/06/12 03:28:47;;;;;;;3.63;2.80;;;14.60;99.90;;;;;;5028109;28;20171;-75
2022/06/12 03:31:26;;;;;;;2.83;2.60;;;14.70;99.90;;;;;;5011680;28;20197;-75
2022/06/12 03:33:57;;;;;;;2.80;2.53;;;14.70;99.90;;;;;;5012713;28;20206;-75
2022/06/12 03:36:39;;;;;;;3.63;2.50;;;14.80;99.90;;;;;;5011822;28;20315;-75
2022/06/12 03:39:18;;;;;;;2.83;2.53;;;14.90;99.90;;;;;;5028360;28;20249;-75
2022/06/12 03:42:19;;;;;;;3.73;2.87;;;15.00;99.90;;;;;;5028136;28;20286;-75
2022/06/12 03:44:49;;;;;;;2.77;2.47;;;15.00;99.90;;;;;;5011471;28;20669;-75
2022/06/12 03:47:18;;;;;;;3.87;2.73;;;14.90;99.90;;;;;;5012798;28;20175;-75
2022/06/12 03:49:43;;;;;;;4.43;3.23;;;14.80;99.90;;;;;;5027811;28;20273;-75
2022/06/12 03:52:14;;;;;;;4.20;2.60;;;14.70;99.90;;;;;;5011323;28;20302;-75
2022/06/12 03:54:55;;;;;;;2.57;2.37;;;14.70;99.90;;;;;;5011842;28;20179;-75
2022/06/12 04:00:21;;;;;;;5.37;2.77;;;14.70;99.90;;;;;;5012869;28;20186;-75
2022/06/12 04:03:10;;;;;;;3.10;2.80;;;14.80;99.90;;;;;;5012297;28;20224;-75
2022/06/12 04:05:44;;;;;;;3.23;2.50;;;14.80;99.90;;;;;;5012833;28;20167;-75
2022/06/12 04:08:16;;;;;;;3.80;2.63;;;14.70;99.90;;;;;;5027778;28;20552;-75
2022/06/12 04:10:42;;;;;;;3.70;2.77;;;14.80;99.90;;;;;;5027653;28;20195;-75
2022/06/12 04:13:11;;;;;;;4.97;2.80;;;14.80;99.90;;;;;;5027412;28;20207;-75
2022/06/12 04:15:45;;;;;;;2.70;2.27;;;14.70;99.90;;;;;;5027740;28;20171;-75
2022/06/12 04:18:11;;;;;;;2.67;2.47;;;14.70;99.90;;;;;;5027498;28;20175;-75
2022/06/12 04:20:54;;;;;;;2.77;2.57;;;14.60;99.90;;;;;;5010975;28;20202;-75
2022/06/12 04:23:31;;;;;;;4.07;2.80;;;14.50;99.90;;;;;;5010873;28;20178;-75
2022/06/12 04:26:35;;;;;;;3.23;2.37;;;14.40;99.90;;;;;;5027577;28;20229;-75
2022/06/12 04:29:24;;;;;;;4.43;3.23;;;14.30;99.90;;;;;;5005683;28;20198;-75
2022/06/12 04:31:55;;;;;;;3.53;3.23;;;14.30;99.90;;;;;;5027494;28;20190;-75
2022/06/12 04:34:28;;;;;;;3.03;2.60;;;14.30;99.90;;;;;;5027339;28;20202;-75
2022/06/12 04:37:16;;;;;;;3.83;2.90;;;14.40;99.90;;;;;;5027326;28;20175;-75
2022/06/12 04:39:42;;;;;;;4.50;2.93;;;14.40;99.90;;;;;;5010666;28;20254;-75
2022/06/12 04:42:08;;;;;;;3.50;3.17;;;14.50;99.90;;;;;;5026962;28;20199;-75
2022/06/12 04:44:34;;;;;;;4.13;3.00;;;14.60;99.90;;;;;;5010849;28;20294;-75
2022/06/12 04:47:03;;;;;;;5.53;3.20;;;14.50;99.90;;;;;;5027500;28;20176;-76
2022/06/12 04:49:31;;;;;;;4.10;3.20;;;14.70;99.90;;;;;;5027063;28;20254;-76
2022/06/12 04:51:59;;;;;;;3.00;2.80;;;14.70;99.90;;;;;;5010653;28;20195;-75
2022/06/12 04:54:26;;;;;;;3.97;3.33;;;14.70;99.90;;;;;;5010700;28;20198;-75
2022/06/12 04:56:52;;;;;;;4.00;3.60;;;14.90;99.90;;;;;;5029431;28;20194;-75
2022/06/12 04:59:19;;;;;;;4.73;4.03;;;15.00;99.90;;;;;;5014529;28;20179;-75
2022/06/12 05:01:47;;;;;;;4.43;4.03;;;15.00;99.90;;;;;;5030724;28;20191;-75
2022/06/12 05:04:12;;;;;;;4.50;4.10;;;15.00;99.90;;;;;;5030947;28;20259;-75
2022/06/12 05:06:39;;;;;;;3.70;3.40;;;15.00;99.90;;;;;;5030872;28;20262;-75
2022/06/12 05:09:06;;;;;;;4.87;3.70;;;15.10;99.90;;;;;;5030945;28;20199;-76
2022/06/12 05:11:32;;;;;;;4.80;4.30;;;15.10;99.90;;;;;;5014214;28;20299;-75
2022/06/12 05:13:58;;;;;;;4.47;4.00;;;15.10;99.90;;;;;;5014311;28;20290;-75
2022/06/12 05:16:32;;;;;;;4.70;4.30;;;15.20;99.90;;;;;;5030544;28;20171;-75
2022/06/12 05:18:59;;;;;;;4.47;4.07;;;15.20;99.90;;;;;;5030549;28;20203;-75
2022/06/12 05:21:27;;;;;;;5.23;4.77;;;15.20;99.90;;;;;;5030368;28;20673;-75
2022/06/12 05:23:53;;;;;;;4.37;4.07;;;15.30;99.90;;;;;;5030447;28;20175;-75
2022/06/12 05:26:20;;;;;;;4.93;4.53;;;15.40;99.90;;;;;;5014259;28;20182;-75
2022/06/12 05:28:46;;;;;;;4.80;4.30;;;15.40;99.90;;;;;;5030514;28;20198;-76
2022/06/12 05:31:12;;;;;;;5.07;4.57;;;15.40;99.90;;;;;;5030330;28;20665;-76
2022/06/12 05:33:38;;;;;;;4.67;4.27;;;15.50;99.90;;;;;;5029895;28;20206;-76
2022/06/12 05:36:05;;;;;;;5.20;4.57;;;15.60;99.90;;;;;;4997439;28;20607;-75
2022/06/12 05:38:31;;;;;;;5.13;4.43;;;15.60;99.90;;;;;;5014005;28;20174;-76
2022/06/12 05:40:57;;;;;;;4.70;4.20;;;15.70;99.90;;;;;;5013916;28;20290;-76
2022/06/12 05:43:22;;;;;;;4.63;3.90;;;15.80;99.90;;;;;;5029904;28;20182;-76
2022/06/12 05:49:10;;;;;;;4.57;4.17;;;16.00;99.90;;;;;;5015289;28;20206;-75
2022/06/12 05:51:36;;;;;;;4.70;4.30;;;16.20;99.90;;;;;;5014329;28;20601;-75
2022/06/12 05:54:01;;;;;;;4.43;4.03;;;16.30;99.90;;;;;;4997959;28;20306;-76
2022/06/12 05:56:39;;;;;;;4.77;4.13;;;16.40;99.90;;;;;;5013908;28;20175;-77
2022/06/12 05:59:04;;;;;;;5.50;4.70;;;16.60;99.90;;;;;;5013886;28;20185;-76
2022/06/12 06:01:30;;;;;;;5.70;5.20;;;16.70;99.90;;;;;;4997478;28;20199;-76
2022/06/12 06:03:56;;;;;;;5.77;5.17;;;16.80;99.90;;;;;;5013926;28;20179;-76
2022/06/12 06:06:35;;;;;;;6.10;4.97;;;16.90;99.90;;;;;;5013703;28;20186;-76
2022/06/12 06:09:04;;;;;;;5.53;4.90;;;17.10;99.90;;;;;;5012823;28;20174;-76
2022/06/12 06:11:30;;;;;;;5.23;4.73;;;17.20;99.90;;;;;;5030345;28;20199;-76
2022/06/12 06:13:56;;;;;;;5.53;4.77;;;17.30;99.90;;;;;;4997235;28;20199;-76
2022/06/12 06:16:23;;;;;;;5.00;4.50;;;17.40;99.90;;;;;;5030253;28;20178;-76
2022/06/12 06:18:48;;;;;;;5.60;5.00;;;17.50;99.90;;;;;;5029985;28;20189;-76
2022/06/12 06:21:15;;;;;;;5.63;4.80;;;17.60;99.90;;;;;;5013472;28;20226;-76
2022/06/12 06:23:42;;;;;;;5.27;4.77;;;17.70;99.90;;;;;;4997244;28;20175;-76
2022/06/12 06:26:09;;;;;;;5.97;4.70;;;17.70;99.90;;;;;;4997443;28;20209;-75
2022/06/12 06:28:34;;;;;;;5.33;4.83;;;17.80;99.90;;;;;;5030032;28;20212;-75
2022/06/12 06:31:00;;;;;;;5.07;4.67;;;17.90;99.90;;;;;;4997039;28;20230;-76
2022/06/12 06:33:26;;;;;;;5.00;4.60;;;18.00;99.90;;;;;;5013078;28;20234;-76
2022/06/12 06:35:51;;;;;;;5.03;4.60;;;18.00;99.90;;;;;;5013046;28;20175;-76
2022/06/12 06:38:18;;;;;;;5.47;4.77;;;18.00;99.90;;;;;;5013581;28;20175;-76
2022/06/12 06:40:43;;;;;;;5.53;4.80;;;18.10;99.90;;;;;;5013134;28;20191;-77
2022/06/12 06:43:10;;;;;;;5.37;4.73;;;18.30;99.90;;;;;;5012893;28;20206;-77
2022/06/12 06:46:15;;;;;;;5.30;4.80;;;18.30;99.90;;;;;;5012816;28;20179;-76
2022/06/12 06:48:41;;;;;;;5.07;4.67;;;18.50;99.90;;;;;;5013349;28;20629;-76
2022/06/12 06:51:07;;;;;;;6.00;4.93;;;18.60;99.90;;;;;;5012810;28;20198;-77
2022/06/12 06:53:33;;;;;;;6.70;4.97;;;18.60;99.90;;;;;;4996310;28;20249;-77
2022/06/12 06:55:58;;;;;;;5.30;4.80;;;18.70;99.90;;;;;;5012844;28;20171;-77
2022/06/12 06:58:26;;;;;;;5.07;4.57;;;18.80;99.90;;;;;;5013055;28;20544;-75
2022/06/12 07:00:53;;;;;;;5.67;4.33;;;18.80;99.90;;;;;;5029175;28;20665;-75
2022/06/12 07:03:19;;;;;;;5.77;4.40;;;18.90;99.90;;;;;;5028933;28;20179;-75
2022/06/12 07:05:47;;;;;;;6.93;4.83;;;19.00;99.90;;;;;;5013920;28;20641;-75
2022/06/12 07:08:13;;;;;;;6.27;4.20;;;19.10;99.90;;;;;;5028109;28;20190;-75
2022/06/12 07:10:40;;;;;;;6.47;4.77;;;19.20;99.90;;;;;;4996490;28;20552;-75
2022/06/12 07:13:06;;;;;;;4.43;4.03;;;19.30;99.90;;;;;;5012152;28;20280;-75
2022/06/12 07:15:33;;;;;;;5.47;4.63;;;19.50;99.90;;;;;;5013639;28;20171;-75
2022/06/12 07:17:59;;;;;;;5.37;4.63;;;19.60;99.90;;;;;;5013862;28;20197;-75
2022/06/12 07:20:29;;;;;;;4.70;4.30;;;19.70;99.90;;;;;;4995662;28;20175;-75
2022/06/12 07:22:55;;;;;;;4.63;4.23;;;19.80;99.90;;;;;;5001997;22;20247;-75
2022/06/12 07:25:21;;;;;;;4.70;4.30;;;19.90;99.90;;;;;;5001835;28;20233;-75
2022/06/12 07:27:47;;;;;;;5.22;4.38;;;20.00;99.90;;;;;;5011776;28;20213;-75
2022/06/12 07:30:16;;;;;;;4.97;4.40;;;20.10;99.90;;;;;;4995488;28;20183;-75
2022/06/12 07:32:42;;;;;;;4.75;4.35;;;20.20;99.90;;;;;;5027619;28;20654;-75
2022/06/12 07:35:08;;;;;;;4.75;4.35;;;20.40;99.90;;;;;;4995291;28;20206;-75
2022/06/12 07:37:35;;;;;;;4.78;4.38;;;20.40;99.90;;;;;;5011462;28;20171;-75
2022/06/12 07:40:01;;;;;;;5.63;4.70;;;20.50;99.90;;;;;;5027874;28;20171;-75
2022/06/12 07:42:27;;;;;;;5.40;4.00;;;20.60;99.90;;;;;;5011337;28;20195;-75
2022/06/12 07:44:53;;;;;;;4.63;4.13;;;20.70;99.90;;;;;;5011528;28;20692;-75
2022/06/12 07:47:19;;;;;;;3.80;3.40;;;20.80;99.90;;;;;;5011394;28;20279;-75
2022/06/12 07:49:45;;;;;;;5.45;3.90;;;20.90;99.90;;;;;;5027971;28;20171;-75
2022/06/12 07:52:12;;;;;;;5.30;4.05;;;21.00;99.90;;;;;;5010992;28;20206;-75
2022/06/12 07:54:39;;;;;;;4.22;3.55;;;21.20;99.90;;;;;;4995441;28;20179;-75
2022/06/12 07:57:06;;;;;;;4.57;3.70;;;21.30;99.90;;;;;;5011103;28;20650;-75
2022/06/12 07:59:32;;;;;;;4.40;3.67;;;21.40;99.90;;;;;;5011406;28;20554;-74
2022/06/12 08:01:58;;;;;;;4.57;3.33;;;21.60;99.90;;;;;;5011521;28;20198;-75
2022/06/12 08:04:24;;;;;;;3.53;3.20;;;21.70;99.90;;;;;;5011754;28;20201;-75
2022/06/12 08:06:50;;;;;;;3.90;3.60;;;21.80;99.90;;;;;;5011436;28;20198;-75
2022/06/12 08:09:17;;;;;;;5.97;3.58;;;22.00;99.90;;;;;;5011233;28;20193;-75
2022/06/12 08:11:45;;;;;;;5.40;3.30;;;22.10;99.90;;;;;;5010568;28;20206;-75
2022/06/12 08:14:12;;;;;;;3.33;3.00;;;22.20;99.90;;;;;;5027025;28;20202;-75
2022/06/12 08:16:38;;;;;;;4.32;2.95;;;22.30;99.90;;;;;;5011195;28;20183;-75
2022/06/12 08:20:24;;;;;;;4.00;3.25;;;22.40;99.90;;;;;;5012765;28;20174;-75
2022/06/12 08:21:49;;;;;;;4.13;3.72;;;22.40;99.90;;;;;;5024566;28;20222;-75
2022/06/12 08:24:15;;;;;;;4.22;3.83;;;22.00;99.90;;;;;;4994780;28;20187;-75
2022/06/12 08:26:41;;;;;;;3.83;3.30;;;21.80;99.90;;;;;;4994594;28;20182;-75
2022/06/12 08:29:10;;;;;;;5.43;3.50;;;21.90;99.90;;;;;;4994672;28;20186;-75
2022/06/12 08:31:41;;;;;;;4.53;3.40;;;21.90;99.90;;;;;;5012707;28;20217;-75
2022/06/12 08:34:12;;;;;;;5.32;3.15;;;22.30;99.90;;;;;;5031171;28;20207;-75
2022/06/12 08:36:39;;;;;;;4.40;3.10;;;22.50;99.90;;;;;;5016151;28;20158;-75
2022/06/12 08:39:06;;;;;;;4.65;2.83;;;22.60;99.90;;;;;;5016156;28;20235;-75
2022/06/12 08:41:34;;;;;;;4.07;2.60;;;22.50;99.90;;;;;;5015752;28;20205;-75
2022/06/12 08:44:03;;;;;;;3.17;2.40;;;22.40;99.90;;;;;;5031295;28;20558;-75
2022/06/12 08:46:43;;;;;;;3.22;2.80;;;22.50;99.90;;;;;;5031337;28;20224;-75
2022/06/12 08:49:41;;;;;;;2.60;2.28;;;22.80;99.90;;;;;;5014774;28;20225;-75
2022/06/12 08:52:32;;;;;;;2.53;2.30;;;23.10;99.90;;;;;;5031039;28;20198;-75
2022/06/12 08:55:09;;;;;;;3.47;2.47;;;23.40;99.90;;;;;;5014737;28;20179;-75
2022/06/12 08:57:53;;;;;;;3.88;2.28;;;23.50;99.90;;;;;;5015755;28;20178;-75
2022/06/12 09:00:23;;;;;;;3.20;2.40;;;23.50;99.90;;;;;;5015721;28;20171;-75
2022/06/12 09:02:49;;;;;;;4.28;2.55;;;23.70;99.90;;;;;;4997887;28;20206;-75
2022/06/12 09:05:26;;;;;;;4.75;2.30;;;23.90;99.90;;;;;;5014555;28;20182;-75
2022/06/12 09:08:08;;;;;;;4.90;2.17;;;24.10;99.90;;;;;;5014299;28;20182;-75
2022/06/12 09:10:46;;;;;;;3.58;2.10;;;24.20;99.90;;;;;;5030862;28;20182;-75
2022/06/12 09:13:20;;;;;;;4.25;2.30;;;24.00;99.90;;;;;;5013488;28;20297;-76
2022/06/12 09:15:59;;;;;;;2.58;2.10;;;23.70;99.90;;;;;;5012800;28;20269;-76
2022/06/12 09:19:03;;;;;;;2.95;2.13;;;23.90;99.90;;;;;;5014360;28;20169;-75
2022/06/12 09:21:37;;;;;;;4.18;2.25;;;24.10;99.90;;;;;;4957376;28;20295;-75
2022/06/12 09:24:25;;;;;;;2.78;2.38;;;24.30;99.90;;;;;;5004931;28;20189;-75
2022/06/12 09:27:11;;;;;;;2.45;2.25;;;24.40;99.90;;;;;;5030716;28;20265;-76
2022/06/12 09:29:57;;;;;;;4.60;2.33;;;24.60;99.90;;;;;;5013975;28;20220;-75
2022/06/12 09:32:54;;;;;;;3.83;2.10;;;24.80;99.90;;;;;;5013710;28;20199;-76
2022/06/12 09:35:35;;;;;;;3.22;2.17;;;24.90;99.90;;;;;;5030942;28;20224;-75
2022/06/12 09:38:18;;;;;;;3.40;2.10;;;25.10;99.90;;;;;;5031073;28;20163;-76
2022/06/12 09:41:09;;;;;;;2.40;1.83;;;25.30;99.90;;;;;;5015404;28;20154;-77
2022/06/12 09:43:47;;;;;;;2.85;2.08;;;25.40;99.90;;;;;;5030426;28;20175;-76
2022/06/12 09:46:34;;;;;;;2.78;2.00;;;25.50;99.90;;;;;;5014300;28;20171;-76
2022/06/12 09:49:19;;;;;;;4.15;2.00;;;25.60;99.90;;;;;;5014346;28;20206;-76
2022/06/12 09:52:03;;;;;;;2.20;2.00;;;25.70;99.90;;;;;;5030328;28;20665;-78
2022/06/12 09:54:48;;;;;;;2.60;1.90;;;25.40;99.90;;;;;;5030421;28;20713;-78
2022/06/12 09:57:39;;;;;;;2.13;1.92;;;25.00;99.90;;;;;;5035357;28;20163;-77
2022/06/12 10:00:22;;;;;;;2.50;2.05;;;24.70;99.90;;;;;;5030665;28;20203;-77
2022/06/12 10:02:55;;;;;;;2.67;2.13;;;24.40;99.90;;;;;;5013867;28;20631;-76
2022/06/12 10:05:40;;;;;;;3.80;2.00;;;24.20;99.90;;;;;;5030453;28;20614;-76
2022/06/12 10:08:18;;;;;;;3.20;1.95;;;24.60;99.90;;;;;;5030352;28;20171;-76
2022/06/12 10:10:57;;;;;;;2.47;1.60;;;25.00;99.90;;;;;;5013611;28;20171;-76
2022/06/12 10:13:45;;;;;;;2.20;1.75;;;25.50;99.90;;;;;;5013494;28;20226;-76
2022/06/12 10:16:20;;;;;;;2.15;1.80;;;25.70;99.90;;;;;;5014422;28;20187;-75
2022/06/12 10:18:55;;;;;;;2.97;1.50;;;25.90;97.70;;;;;;5013820;28;20199;-76
2022/06/12 10:21:23;;;;;;;2.22;1.90;;;26.10;95.50;;;;;;5013488;28;20671;-77
2022/06/12 10:23:49;;;;;;;2.90;1.60;;;26.30;94.90;;;;;;5013428;28;20175;-75
2022/06/12 10:26:22;;;;;;;1.98;1.65;;;26.20;95.10;;;;;;5013520;28;20195;-75
2022/06/12 10:28:59;;;;;;;2.97;1.60;;;26.20;94.50;;;;;;5013635;28;20254;-75
2022/06/12 10:31:25;;;;;;;3.42;1.50;;;26.20;95.10;;;;;;5013517;28;20199;-77
2022/06/12 10:34:03;;;;;;;1.88;1.65;;;26.40;95.00;;;;;;5013313;28;20264;-77
2022/06/12 10:36:32;;;;;;;1.48;1.33;;;26.60;92.00;;;;;;5014777;28;20503;-76
2022/06/12 10:39:24;;;;;;;1.98;1.30;;;26.60;87.00;;;;;;5013678;28;20257;-77
2022/06/12 10:41:59;;;;;;;1.67;1.50;;;26.50;82.20;;;;;;5008169;28;20207;-76
2022/06/12 10:44:42;;;;;;;2.42;1.45;;;26.70;80.10;;;;;;5013060;28;20174;-77
2022/06/12 10:47:14;;;;;;;2.72;1.48;;;26.30;84.50;;;;;;5013103;28;20175;-77
2022/06/12 10:49:40;;;;;;;3.10;1.60;;;26.00;88.20;;;;;;5029727;28;20237;-76
2022/06/12 10:52:12;;;;;;;1.75;1.50;;;26.10;92.00;;;;;;4996651;28;20211;-76
2022/06/12 10:54:38;;;;;;;2.50;1.67;;;26.30;92.70;;;;;;5012291;28;20528;-77
2022/06/12 10:57:18;;;;;;;3.55;1.63;;;26.60;91.10;;;;;;5013106;28;20708;-77
2022/06/12 11:00:04;;;;;;;3.60;1.70;;;26.80;91.40;;;;;;5029608;28;20169;-77
2022/06/12 11:02:51;;;;;;;2.15;1.70;;;26.80;91.30;;;;;;5028908;28;20199;-77
2022/06/12 11:05:22;;;;;;;2.80;1.67;;;26.90;92.10;;;;;;5029097;28;20175;-77
2022/06/12 11:07:58;;;;;;;3.30;1.58;;;27.20;91.80;;;;;;5029142;28;20171;-77
2022/06/12 11:10:51;;;;;;;2.05;1.48;;;27.00;87.10;;;;;;5014178;28;20167;-77
2022/06/12 11:13:39;;;;;;;2.95;1.50;;;27.20;86.70;;;;;;5028873;28;20195;-77
2022/06/12 11:16:26;;;;;;;2.55;1.50;;;27.50;84.40;;;;;;5029026;28;20202;-77
2022/06/12 11:19:04;;;;;;;1.55;1.30;;;27.40;79.70;;;;;;5029310;28;20174;-77
2022/06/12 11:21:38;;;;;;;2.63;1.45;;;27.40;85.90;;;;;;5028741;28;20202;-76
2022/06/12 11:24:26;;;;;;;1.50;1.40;;;27.60;84.10;;;;;;5028632;28;20175;-77
2022/06/12 11:27:07;;;;;;;1.90;1.52;;;27.60;79.50;;;;;;5012343;28;20175;-77
2022/06/12 11:29:36;;;;;;;1.77;1.30;;;27.60;73.80;;;;;;5028714;28;20167;-77
2022/06/12 11:32:28;;;;;;;1.98;1.50;;;27.50;70.50;;;;;;5028723;28;20191;-77
2022/06/12 11:35:05;;;;;;;4.18;1.30;;;27.50;70.10;;;;;;5028778;28;20183;-77
2022/06/12 11:37:46;;;;;;;1.60;1.30;;;27.80;71.30;;;;;;5028631;28;20197;-75
2022/06/12 11:40:38;;;;;;;2.35;1.50;;;27.70;74.20;;;;;;5012378;28;20182;-75
2022/06/12 11:43:18;;;;;;;3.22;1.60;;;27.80;75.10;;;;;;5012043;28;20191;-75
2022/06/12 11:46:05;;;;;;;4.00;1.60;;;28.00;77.60;;;;;;5028509;28;20170;-75
2022/06/12 11:48:56;;;;;;;1.70;1.45;;;28.20;76.30;;;;;;5028420;28;20167;-75
2022/06/12 11:51:37;;;;;;;3.05;1.50;;;28.10;74.90;;;;;;5012100;28;20195;-75
2022/06/12 11:54:35;;;;;;;3.85;1.40;;;27.50;75.20;;;;;;5012771;28;20201;-76
2022/06/12 11:57:22;;;;;;;2.95;1.63;;;27.20;77.60;;;;;;5013380;28;20208;-76
2022/06/12 11:59:48;;;;;;;2.08;1.45;;;27.30;77.80;;;;;;5028635;28;20166;-76
2022/06/12 12:02:35;;;;;;;1.85;1.60;;;27.10;76.00;;;;;;5012036;28;20198;-76
2022/06/12 12:05:04;;;;;;;2.55;1.50;;;26.90;80.60;;;;;;5027714;28;20202;-76
2022/06/12 12:07:52;;;;;;;1.88;1.50;;;26.80;80.20;;;;;;5027686;28;20626;-76
2022/06/12 12:10:29;;;;;;;2.28;1.55;;;26.80;76.40;;;;;;5012486;28;20178;-76
2022/06/12 12:13:05;;;;;;;1.63;1.30;;;27.00;77.00;;;;;;5027395;28;20202;-76
2022/06/12 12:15:38;;;;;;;1.85;1.48;;;27.50;77.00;;;;;;5011139;28;20225;-76
2022/06/12 12:18:12;;;;;;;2.10;1.50;;;27.60;76.50;;;;;;5027097;28;20278;-76
2022/06/12 12:20:41;;;;;;;2.00;1.48;;;27.70;73.20;;;;;;5027495;28;20187;-76
2022/06/12 12:23:39;;;;;;;1.83;1.40;;;28.10;72.70;;;;;;5027057;28;20221;-76
2022/06/12 12:26:18;;;;;;;3.22;1.40;;;28.50;70.20;;;;;;5003237;28;20187;-76
2022/06/12 12:28:52;;;;;;;1.92;1.33;;;28.50;67.40;;;;;;5027506;28;20708;-76
2022/06/12 12:31:18;;;;;;;2.90;1.42;;;28.50;67.90;;;;;;5010900;28;20358;-76
2022/06/12 12:33:47;;;;;;;2.55;1.33;;;28.30;66.60;;;;;;5010938;28;20202;-76
2022/06/12 12:41:52;;;;;;;2.10;1.50;;;27.30;71.30;;;;;;5012174;28;20201;-76
2022/06/12 12:44:36;;;;;;;2.75;1.50;;;27.00;72.90;;;;;;5010911;28;20175;-76
2022/06/12 12:47:15;;;;;;;2.72;1.35;;;27.40;70.30;;;;;;5027209;28;20318;-76
2022/06/12 12:49:40;;;;;;;4.78;1.48;;;27.70;69.90;;;;;;5010761;28;20608;-76
2022/06/12 12:52:18;;;;;;;2.05;1.55;;;27.90;65.90;;;;;;5011896;28;20203;-76
2022/06/12 12:54:56;;;;;;;2.90;1.30;;;27.80;61.10;;;;;;5027240;28;20258;-76
2022/06/12 12:57:43;;;;;;;1.90;1.40;;;28.20;61.20;;;;;;5010869;28;20171;-76
2022/06/12 13:00:18;;;;;;;2.13;1.30;;;28.50;64.30;;;;;;5010751;28;20167;-76
2022/06/12 13:02:56;;;;;;;2.78;1.42;;;28.30;65.00;;;;;;5026920;28;20217;-76
2022/06/12 13:05:45;;;;;;;1.38;1.23;;;28.60;63.10;;;;;;5010831;28;20266;-76
2022/06/12 13:08:20;;;;;;;1.35;1.10;;;28.70;59.60;;;;;;5024799;28;20202;-76
2022/06/12 13:11:28;;;;;;;1.85;1.20;;;28.40;57.20;;;;;;5026973;28;20174;-76
2022/06/12 13:14:30;;;;;;;1.98;1.40;;;28.30;57.40;;;;;;5011770;28;20194;-76
2022/06/12 13:17:23;;;;;;;1.75;1.27;;;28.30;57.30;;;;;;5027724;28;20171;-76
2022/06/12 13:20:12;;;;;;;2.80;1.30;;;28.70;60.00;;;;;;5030788;28;20175;-76
2022/06/12 13:22:56;;;;;;;3.22;1.30;;;28.80;58.30;;;;;;5071444;22;20229;-79
2022/06/12 13:25:27;;;;;;;1.65;1.33;;;28.80;55.20;;;;;;5072202;28;20176;-80
2022/06/12 13:28:02;;;;;;;2.72;1.60;;;29.10;57.00;;;;;;5055190;28;20636;-80
2022/06/12 13:30:41;;;;;;;1.75;1.50;;;29.00;55.80;;;;;;5038373;28;20180;-80
2022/06/12 13:33:29;;;;;;;2.55;1.33;;;28.90;55.70;;;;;;5054635;28;20244;-80
2022/06/12 13:35:58;;;;;;;1.50;1.30;;;28.60;53.80;;;;;;5038271;28;20209;-79
2022/06/12 13:38:31;;;;;;;1.50;1.40;;;28.60;54.10;;;;;;5038542;28;20199;-79
2022/06/12 13:41:35;;;;;;;2.35;1.23;;;28.70;55.50;;;;;;5039127;28;20181;-79